Pagrindinis puslapis
METAR-TAF:

METAR-TAF

Oro uostai :

Madridas, Ispanija

platuma: 40-27N, ilguma: 003-33W, Aukštis: 609 m

Dabartinis oras

Ataskaita buvo paskelbta 28 minutes, ne 08:30 UTC
Vėjas 1 kt nuo kintamojo kryptimis
Temperatūra 8°C
Drėgmė 81%
Slėgis 1023 hPa
Matomumas 10 km arba daugiau
Su prošvaistėmis ne aukštis 5000 ft

METAR: LEMD 060830Z VRB01KT 9999 BKN050 08/05 Q1023 NOSIG

Laikas: 09:58 (08:58 UTC)

Prognozė

Ataskaita buvo paskelbta 3 valandos ir 58 minutes, ne 05:00 UTC
Prognozė galioja nuo 06 metu 06 UTC su 07 metu 12 UTC
Vėjas 8 kt iš Šiaurės
Matomumas 10 km arba daugiau
Mažai debesys ne aukštis 3000 ft
Išsisklaidę debesys ne aukštis 4000 ft
Tapsmas
nuo 06 metu 09 UTC su 06 metu 11 UTC
Vėjas 4 kt nuo kintamojo kryptimis

TAF: LEMD 060500Z 0606/0712 35008KT 9999 FEW030 SCT040 TX13/0615Z TN02/0706Z BECMG 0609/0611 VRB04KT

Orai ataskaitas ir orų prognozės (METAR, TAF).

turimą stotys yra geltonos ir raudonos taškus žemėlapyje.

Perkelti pele per norėdami pamatyti stoties vardą.

Tada spustelėkite, norėdami matyti oro stebėjimo ir prognozės.

Norėdami pakeisti žemėlapį: spustelėkite ant žalios mygtukų su juodo kryžiaus žemyn,; žalią mygtuką su brūkšneliu, jei norite nutolinti; arba žalių rodyklių gretimoms žemėlapius.


METAR-TAF: